aviador You're here:

KDAA Decoded Metar

FORT BELVOIR/DAV in VA, USA
Report Time2018-05-21 23:56:00
UTC Time2018-05-22 00:27:54
Flight Rules vfr VFR
Wind140° at 05 kt
W.Decomp.*RWY 14: 4.9 kt HW 0.8 kt RCW
W.Rank140° ranks 4
Current wind is above 140° avg. (4.7)
Visibility9999 m
Phenomena:N/A
Clouds:N/A
Expected CloudBase > 2,400 ft AGL from Temp-Dew spread
CeilingNone
Temp23°C (ISA +8)
Dew Point17°C (69% RH)
QNH1020 hPa
Density Alt1,037 ft
Elevation69 ft
Report Wrong Elevation
Raw Report
KDAA 212356Z AUTO 14005KT 10SM CLR 23/17 A3013 RMK AO2 SLP206
T02310173 10274 20231 53002=

Extra information for KDAA:More info

Metar Taf Metar & Taf Last 4 Metars F.Rules Stats Wind Profile Meteogram Temp Stats Airport Information Weather charts Add Link Nearby VenuesMetar ALERT Operation Metar Decoded Social comments

AIRNAV info for KDAA